Kurchatov, Russia
Current Conditions -  °F | °C
As of 10:00 AM on Saturday 29 Nov 2014 (Local Time) from UUOK Reporting Station
Light Snow Light Snow  
Wind Chill: 11°   Ceiling: 700
Heat Index: 23°   Visibility: 4mi
Dew Point: 19°   Wind: 13mph
Humidity: 86%   Direction: 100°E
Pressure: 30.45"   Gusts: NA
Location:  51.59°N, 35.65°E
Report Text: UUOK 290700Z 10006MPS 6000 -SN OVC007 M05/M07 Q1031 NOSIG RMK12492045
Loading
Personal Weather Stations






























Interactive Weather Map New forecast layout! Learn more

10-Day Weather Forecast

Advertisements
Track Severe Weather on mobile